Time;durP1;ratioP1;P1;durP2;ratioP2;P2;SDS_P1;SDS_P2;PMS_P1;PMS_P2;Temp;Humidity;BMP_temperature;BMP_pressure;BME280_temperature;BME280_humidity;BME280_pressure;Samples;Min_cycle;Max_cycle;Signal;HPM_P1;HPM_P2
2021/07/20 00:00:15;;;;;;;16.23;11.02;;;15.10;77.70;;;;;;5040025;28;20031;-80
2021/07/20 00:02:45;;;;;;;16.60;10.25;;;15.10;77.60;;;;;;5017593;28;20438;-80
2021/07/20 00:05:11;;;;;;;17.10;10.90;;;14.90;77.40;;;;;;5046598;28;20039;-80
2021/07/20 00:07:38;;;;;;;9.80;7.78;;;14.80;77.60;;;;;;5016800;28;20032;-80
2021/07/20 00:10:14;;;;;;;11.07;8.30;;;14.80;77.50;;;;;;5039664;28;20028;-80
2021/07/20 00:12:40;;;;;;;14.63;9.88;;;14.80;77.80;;;;;;5042717;28;20095;-80
2021/07/20 00:15:09;;;;;;;10.35;7.30;;;14.80;78.10;;;;;;5046451;28;20175;-80
2021/07/20 00:17:35;;;;;;;13.27;8.23;;;14.80;78.10;;;;;;5022068;28;20036;-80
2021/07/20 00:20:01;;;;;;;11.55;8.57;;;14.80;78.10;;;;;;5037083;28;20025;-81
2021/07/20 00:22:27;;;;;;;11.38;8.63;;;14.80;78.30;;;;;;5034738;28;20540;-80
2021/07/20 00:24:52;;;;;;;11.85;8.85;;;14.70;78.30;;;;;;5032171;28;20032;-80
2021/07/20 00:27:18;;;;;;;13.40;8.43;;;14.70;78.50;;;;;;5054474;28;20037;-81
2021/07/20 00:29:43;;;;;;;11.65;8.88;;;14.70;78.50;;;;;;5025156;28;20025;-80
2021/07/20 00:32:09;;;;;;;13.00;7.88;;;14.70;78.40;;;;;;5046033;28;20025;-79
2021/07/20 00:34:35;;;;;;;16.48;9.48;;;14.60;78.90;;;;;;5022361;28;20051;-80
2021/07/20 00:37:00;;;;;;;20.60;10.27;;;14.60;79.80;;;;;;5033249;28;20025;-81
2021/07/20 00:39:26;;;;;;;12.02;9.07;;;14.60;80.80;;;;;;5043872;28;20393;-80
2021/07/20 00:41:52;;;;;;;14.25;10.05;;;14.60;79.60;;;;;;5036985;28;20087;-80
2021/07/20 00:44:17;;;;;;;14.48;10.25;;;14.50;79.50;;;;;;5042745;28;20029;-80
2021/07/20 00:46:43;;;;;;;16.42;11.10;;;14.40;79.40;;;;;;5025049;28;20025;-79
2021/07/20 00:49:08;;;;;;;17.73;10.60;;;14.20;82.50;;;;;;5014745;28;20033;-79
2021/07/20 00:51:34;;;;;;;16.52;9.52;;;14.30;79.90;;;;;;5038106;28;20112;-79
2021/07/20 00:53:59;;;;;;;18.83;11.45;;;14.20;79.50;;;;;;5057002;28;20155;-79
2021/07/20 00:56:25;;;;;;;16.80;11.02;;;14.20;80.70;;;;;;5031406;28;20491;-79
2021/07/20 00:58:51;;;;;;;19.55;11.98;;;14.10;80.30;;;;;;5038198;28;20455;-80
2021/07/20 01:01:16;;;;;;;21.25;10.88;;;14.00;85.70;;;;;;5053253;28;20029;-79
2021/07/20 01:03:42;;;;;;;17.65;10.27;;;14.00;80.80;;;;;;5023294;28;20501;-79
2021/07/20 01:06:07;;;;;;;16.52;11.10;;;13.90;81.60;;;;;;5061528;28;20078;-80
2021/07/20 01:08:33;;;;;;;18.60;9.63;;;14.10;80.70;;;;;;5044744;28;20115;-79
2021/07/20 01:11:00;;;;;;;16.45;10.88;;;13.90;80.90;;;;;;5037450;28;20060;-79
2021/07/20 01:13:25;;;;;;;14.70;10.13;;;13.90;81.00;;;;;;5043960;28;20032;-79
2021/07/20 01:15:51;;;;;;;16.63;11.23;;;13.80;81.70;;;;;;5030985;28;20028;-79
2021/07/20 01:18:17;;;;;;;17.98;11.30;;;13.70;85.90;;;;;;5046815;28;20040;-79
2021/07/20 01:20:42;;;;;;;23.25;12.20;;;13.60;88.10;;;;;;5034737;28;20038;-79
2021/07/20 01:23:17;;;;;;;20.55;12.30;;;13.40;91.70;;;;;;5049538;28;20120;-80
2021/07/20 01:25:42;;;;;;;20.67;12.20;;;13.30;92.90;;;;;;5017217;28;20112;-79
2021/07/20 01:28:08;;;;;;;21.17;12.13;;;13.20;92.60;;;;;;5042362;28;20466;-79
2021/07/20 01:30:35;;;;;;;17.77;11.70;;;13.40;90.60;;;;;;5013768;28;20029;-79
2021/07/20 01:33:01;;;;;;;18.23;11.38;;;13.50;89.00;;;;;;5012773;28;20056;-78
2021/07/20 01:35:27;;;;;;;20.42;11.98;;;13.50;88.40;;;;;;5010861;28;20459;-79
2021/07/20 01:37:55;;;;;;;18.98;11.40;;;13.50;88.80;;;;;;5033369;28;20127;-78
2021/07/20 01:40:20;;;;;;;13.88;9.55;;;13.60;86.80;;;;;;5037732;28;20055;-79
2021/07/20 01:42:46;;;;;;;12.82;8.35;;;13.60;86.60;;;;;;5035757;28;20088;-79
2021/07/20 01:45:12;;;;;;;15.65;9.93;;;13.60;86.90;;;;;;5050778;28;20835;-78
2021/07/20 01:47:38;;;;;;;17.50;8.55;;;13.70;87.10;;;;;;5027676;28;20108;-78
2021/07/20 01:50:04;;;;;;;14.65;8.68;;;13.50;87.10;;;;;;5019953;28;20048;-78
2021/07/20 01:52:31;;;;;;;13.80;8.88;;;13.50;87.50;;;;;;5053198;28;20048;-78
2021/07/20 01:54:56;;;;;;;15.77;8.30;;;13.50;88.10;;;;;;5033424;28;20041;-78
2021/07/20 01:57:22;;;;;;;13.68;9.20;;;13.40;88.70;;;;;;5044926;28;20378;-78
2021/07/20 01:59:47;;;;;;;14.57;10.35;;;13.30;88.00;;;;;;5022000;28;20415;-78
2021/07/20 02:02:33;;;;;;;15.00;9.13;;;13.30;88.90;;;;;;5056057;28;20031;-78
2021/07/20 02:10:28;;;;;;;16.88;10.38;;;13.00;90.00;;;;;;5045396;28;20052;-78
2021/07/20 02:12:56;;;;;;;13.38;9.05;;;13.00;88.90;;;;;;5034540;28;20492;-78
2021/07/20 02:15:21;;;;;;;15.82;8.90;;;13.10;89.20;;;;;;5027650;28;20493;-78
2021/07/20 02:17:47;;;;;;;14.55;9.35;;;13.00;88.80;;;;;;5040747;28;20094;-78
2021/07/20 02:20:16;;;;;;;17.35;10.15;;;13.00;88.70;;;;;;5025914;28;20481;-78
2021/07/20 02:22:41;;;;;;;13.15;8.77;;;12.90;90.00;;;;;;5054645;28;20115;-78
2021/07/20 02:25:08;;;;;;;13.43;9.60;;;13.10;90.40;;;;;;5048634;28;20166;-78
2021/07/20 02:27:33;;;;;;;17.23;9.10;;;13.20;90.50;;;;;;5031867;28;20373;-79
2021/07/20 02:30:03;;;;;;;16.08;8.88;;;13.10;90.50;;;;;;5047501;28;20035;-78
2021/07/20 02:32:29;;;;;;;17.67;11.40;;;13.00;90.30;;;;;;5048560;28;20040;-78
2021/07/20 02:34:55;;;;;;;16.98;11.10;;;12.90;91.00;;;;;;5047310;28;20036;-78
2021/07/20 02:37:21;;;;;;;16.85;11.38;;;12.80;90.10;;;;;;5029239;28;20025;-79
2021/07/20 02:39:46;;;;;;;18.50;10.90;;;12.70;91.20;;;;;;5021138;28;20560;-78
2021/07/20 02:42:12;;;;;;;18.23;11.35;;;12.70;91.40;;;;;;5041642;28;20032;-78
2021/07/20 02:44:38;;;;;;;15.35;9.73;;;12.60;90.30;;;;;;5028782;28;20025;-78
2021/07/20 02:47:04;;;;;;;18.10;10.85;;;12.60;90.20;;;;;;5020204;28;20384;-78
2021/07/20 02:49:29;;;;;;;21.05;11.77;;;12.60;91.30;;;;;;5025818;28;20033;-78
2021/07/20 02:51:55;;;;;;;13.98;9.35;;;12.60;91.10;;;;;;5021168;28;20536;-79
2021/07/20 02:54:23;;;;;;;16.52;10.13;;;12.70;91.20;;;;;;5023576;28;20022;-78
2021/07/20 02:56:49;;;;;;;16.80;10.85;;;12.80;90.60;;;;;;5027605;28;20024;-77
2021/07/20 02:59:15;;;;;;;19.15;10.73;;;12.70;91.00;;;;;;5017309;28;20097;-78
2021/07/20 03:01:41;;;;;;;19.65;12.02;;;12.50;90.60;;;;;;5037456;28;20025;-78
2021/07/20 03:04:07;;;;;;;19.00;10.23;;;12.50;92.50;;;;;;5044761;28;20370;-78
2021/07/20 03:06:33;;;;;;;21.15;12.30;;;12.40;90.80;;;;;;5020101;28;20032;-78
2021/07/20 03:08:59;;;;;;;21.65;11.10;;;12.40;91.10;;;;;;5022709;28;20565;-78
2021/07/20 03:11:32;;;;;;;21.15;11.77;;;12.30;91.40;;;;;;5049403;28;20025;-79
2021/07/20 03:14:00;;;;;;;23.25;11.93;;;12.30;92.90;;;;;;5033994;28;20127;-77
2021/07/20 03:16:26;;;;;;;18.20;10.38;;;12.30;91.70;;;;;;5028747;28;20029;-78
2021/07/20 03:18:52;;;;;;;13.93;10.15;;;12.30;91.50;;;;;;5036905;28;20067;-77
2021/07/20 03:21:17;;;;;;;14.98;9.68;;;12.50;91.40;;;;;;5048968;28;20119;-77
2021/07/20 03:23:43;;;;;;;16.88;10.57;;;12.60;91.40;;;;;;5033764;28;20119;-78
2021/07/20 03:26:08;;;;;;;20.45;11.25;;;12.50;91.50;;;;;;5047159;28;20037;-78
2021/07/20 03:28:34;;;;;;;14.65;9.55;;;12.30;91.30;;;;;;5044796;28;20040;-78
2021/07/20 03:30:59;;;;;;;15.60;9.50;;;12.30;91.20;;;;;;5034195;28;20107;-77
2021/07/20 03:33:25;;;;;;;15.13;9.88;;;12.30;90.80;;;;;;5048041;28;20024;-78
2021/07/20 03:35:51;;;;;;;16.30;10.65;;;12.30;91.00;;;;;;5023114;28;20119;-78
2021/07/20 03:38:17;;;;;;;15.00;10.70;;;12.20;91.20;;;;;;5054161;28;20162;-78
2021/07/20 03:40:47;;;;;;;18.83;10.43;;;12.20;91.10;;;;;;5029180;28;20028;-78
2021/07/20 03:43:12;;;;;;;18.27;11.20;;;12.20;91.20;;;;;;5027147;28;20035;-78
2021/07/20 03:45:38;;;;;;;17.27;11.35;;;12.00;91.30;;;;;;5020988;28;20029;-78
2021/07/20 03:48:04;;;;;;;20.55;11.85;;;11.90;91.30;;;;;;5037816;28;20044;-78
2021/07/20 03:50:29;;;;;;;13.98;9.20;;;12.00;91.30;;;;;;5019723;28;20082;-78
2021/07/20 03:52:55;;;;;;;19.40;9.73;;;12.00;90.90;;;;;;5046688;28;20039;-78
2021/07/20 03:55:21;;;;;;;19.67;10.98;;;12.00;91.00;;;;;;5028995;28;20025;-77
2021/07/20 03:57:47;;;;;;;14.35;9.90;;;12.00;91.60;;;;;;5025313;28;20108;-78
2021/07/20 04:00:13;;;;;;;20.50;9.80;;;12.00;91.70;;;;;;5030314;28;20120;-78
2021/07/20 04:02:48;;;;;;;19.55;11.40;;;12.00;91.70;;;;;;5044626;28;20040;-78
2021/07/20 04:05:14;;;;;;;20.55;11.68;;;12.00;93.70;;;;;;5030551;28;20111;-79
2021/07/20 04:07:40;;;;;;;18.90;11.20;;;11.90;91.80;;;;;;5031302;28;20036;-78
2021/07/20 04:10:06;;;;;;;13.77;9.07;;;11.90;91.60;;;;;;5033071;28;20045;-78
2021/07/20 04:12:33;;;;;;;16.90;12.02;;;11.80;91.40;;;;;;5029949;28;20021;-78
2021/07/20 04:14:58;;;;;;;15.60;9.68;;;11.80;91.70;;;;;;5017438;28;20055;-78
2021/07/20 04:17:24;;;;;;;15.05;9.85;;;11.80;91.20;;;;;;5044962;28;20217;-78
2021/07/20 04:19:49;;;;;;;16.88;9.13;;;11.90;91.30;;;;;;5037883;28;20033;-78
2021/07/20 04:22:15;;;;;;;20.00;11.38;;;11.90;91.30;;;;;;5023667;28;20469;-79
2021/07/20 04:24:41;;;;;;;24.30;11.77;;;11.90;91.60;;;;;;5031533;28;20029;-78
2021/07/20 04:27:06;;;;;;;16.85;10.88;;;11.90;94.40;;;;;;5050407;28;20020;-77
2021/07/20 04:29:32;;;;;;;16.25;10.02;;;12.10;92.10;;;;;;5032518;28;20086;-78
2021/07/20 04:32:01;;;;;;;20.67;12.35;;;12.00;91.60;;;;;;5039073;28;20035;-77
2021/07/20 04:34:27;;;;;;;23.48;13.32;;;12.00;92.40;;;;;;5044643;28;20029;-78
2021/07/20 04:36:52;;;;;;;22.25;12.75;;;12.00;92.40;;;;;;5026078;28;20029;-79
2021/07/20 04:39:18;;;;;;;25.00;13.30;;;12.10;92.10;;;;;;5052665;28;20098;-78
2021/07/20 04:41:43;;;;;;;12.30;8.30;;;12.10;91.80;;;;;;5041499;28;20415;-78
2021/07/20 04:44:09;;;;;;;13.35;8.88;;;12.20;91.50;;;;;;5035086;28;20418;-79
2021/07/20 04:46:34;;;;;;;12.70;8.60;;;12.30;91.30;;;;;;5021287;28;20024;-78
2021/07/20 04:49:03;;;;;;;20.20;11.65;;;12.40;91.30;;;;;;5054854;28;20094;-78
2021/07/20 04:51:30;;;;;;;20.55;12.48;;;12.50;91.70;;;;;;5043911;28;20033;-78
2021/07/20 04:53:55;;;;;;;19.23;12.23;;;12.50;91.70;;;;;;5016007;28;20135;-78
2021/07/20 04:56:22;;;;;;;21.45;12.05;;;12.60;91.60;;;;;;5048602;28;20103;-78
2021/07/20 04:58:48;;;;;;;18.77;12.05;;;12.70;91.80;;;;;;5019327;28;20037;-77
2021/07/20 05:01:13;;;;;;;19.50;12.55;;;12.70;91.90;;;;;;5039117;28;20082;-77
2021/07/20 05:03:40;;;;;;;26.38;12.73;;;12.80;92.20;;;;;;5016606;28;20037;-79
2021/07/20 05:06:05;;;;;;;26.05;13.88;;;12.90;92.10;;;;;;5038052;28;20545;-78
2021/07/20 05:08:33;;;;;;;22.73;14.00;;;13.00;92.00;;;;;;5035531;28;20036;-78
2021/07/20 05:10:58;;;;;;;27.65;13.15;;;13.20;92.00;;;;;;5032173;28;20067;-79
2021/07/20 05:13:24;;;;;;;21.65;12.98;;;13.30;91.80;;;;;;5012814;28;20071;-78
2021/07/20 05:15:55;;;;;;;24.67;13.75;;;13.30;91.80;;;;;;5053643;28;20030;-78
2021/07/20 05:18:21;;;;;;;23.58;13.27;;;13.40;92.00;;;;;;5027751;28;20085;-78
2021/07/20 05:20:48;;;;;;;17.80;11.88;;;13.50;92.10;;;;;;5037664;28;20438;-78
2021/07/20 05:23:17;;;;;;;13.90;9.77;;;13.60;92.40;;;;;;5039322;28;20040;-79
2021/07/20 05:25:44;;;;;;;12.30;7.72;;;13.70;91.90;;;;;;5043613;28;20476;-78
2021/07/20 05:28:10;;;;;;;9.70;7.57;;;13.80;91.40;;;;;;5030095;28;20032;-78
2021/07/20 05:30:36;;;;;;;13.98;9.43;;;13.90;91.20;;;;;;5028430;28;20035;-79
2021/07/20 05:33:02;;;;;;;13.18;9.43;;;13.90;91.20;;;;;;5036272;28;20032;-78
2021/07/20 05:35:28;;;;;;;16.83;11.07;;;13.90;90.40;;;;;;5026151;28;20503;-78
2021/07/20 05:37:53;;;;;;;25.88;11.15;;;14.00;90.50;;;;;;5046457;28;20515;-78
2021/07/20 05:40:20;;;;;;;22.67;11.45;;;14.00;91.00;;;;;;5046728;28;20032;-78
2021/07/20 05:42:46;;;;;;;15.85;9.32;;;14.00;91.00;;;;;;5030570;28;20043;-79
2021/07/20 05:45:12;;;;;;;18.63;10.38;;;14.10;90.70;;;;;;5046722;28;20186;-79
2021/07/20 05:47:39;;;;;;;19.92;10.95;;;14.20;90.40;;;;;;5039103;28;20514;-78
2021/07/20 05:50:06;;;;;;;19.02;11.43;;;14.30;91.10;;;;;;5050723;28;21962;-78
2021/07/20 05:52:31;;;;;;;21.55;12.23;;;14.40;90.80;;;;;;5013500;28;20017;-78
2021/07/20 05:54:57;;;;;;;20.27;10.98;;;14.50;91.50;;;;;;5025944;28;20041;-78
2021/07/20 05:57:25;;;;;;;22.48;12.02;;;14.70;91.10;;;;;;5031586;28;20039;-78
2021/07/20 05:59:51;;;;;;;23.02;13.32;;;14.90;91.60;;;;;;5031289;28;20041;-77
2021/07/20 06:02:16;;;;;;;17.15;11.45;;;15.10;91.60;;;;;;5027953;28;20479;-79
2021/07/20 06:04:42;;;;;;;21.02;12.82;;;15.30;91.70;;;;;;5019901;28;20526;-78
2021/07/20 06:07:08;;;;;;;25.75;13.45;;;15.60;91.20;;;;;;5035467;28;20036;-78
2021/07/20 06:09:35;;;;;;;18.23;11.85;;;15.80;91.60;;;;;;5043310;28;20036;-79
2021/07/20 06:12:00;;;;;;;26.55;14.52;;;16.10;91.50;;;;;;5043403;28;20123;-78
2021/07/20 06:14:26;;;;;;;22.73;13.32;;;16.40;92.40;;;;;;5047782;28;20120;-77
2021/07/20 06:16:52;;;;;;;16.52;10.73;;;16.60;92.40;;;;;;5028903;28;20104;-77
2021/07/20 06:19:17;;;;;;;24.10;13.50;;;16.90;91.90;;;;;;5054896;28;20544;-77
2021/07/20 06:21:43;;;;;;;28.48;14.77;;;17.00;92.80;;;;;;5060393;28;20044;-78
2021/07/20 06:24:09;;;;;;;24.23;13.82;;;17.20;92.30;;;;;;5039719;28;20027;-79
2021/07/20 06:26:35;;;;;;;23.95;15.63;;;17.30;92.20;;;;;;5047142;28;20074;-78
2021/07/20 06:29:01;;;;;;;24.85;14.43;;;17.50;92.90;;;;;;5031007;28;20091;-77
2021/07/20 06:31:27;;;;;;;24.40;14.43;;;17.60;93.60;;;;;;5027860;28;20035;-78
2021/07/20 06:33:53;;;;;;;26.98;14.57;;;18.00;93.30;;;;;;5039806;28;20105;-78
2021/07/20 06:36:18;;;;;;;24.38;13.98;;;18.20;93.60;;;;;;5045324;28;20116;-78
2021/07/20 06:38:44;;;;;;;23.15;12.80;;;18.50;93.90;;;;;;5032849;28;20480;-77
2021/07/20 06:41:10;;;;;;;23.13;12.63;;;18.80;93.60;;;;;;5039979;28;20392;-78
2021/07/20 06:43:36;;;;;;;25.60;12.60;;;19.10;93.30;;;;;;5024393;28;20024;-78
2021/07/20 06:46:01;;;;;;;23.77;13.10;;;19.30;93.20;;;;;;5035720;28;20078;-78
2021/07/20 06:48:27;;;;;;;23.15;13.52;;;19.50;92.90;;;;;;5047379;28;20037;-78
2021/07/20 06:50:53;;;;;;;26.05;12.77;;;19.70;93.00;;;;;;5041347;28;20025;-78
2021/07/20 06:53:18;;;;;;;21.60;11.63;;;20.00;92.90;;;;;;5029194;28;20032;-78
2021/07/20 06:55:55;;;;;;;16.13;10.32;;;20.10;92.80;;;;;;5034476;28;20450;-78
2021/07/20 06:58:22;;;;;;;19.90;12.10;;;20.20;91.90;;;;;;5058019;28;20025;-78
2021/07/20 07:00:58;;;;;;;23.08;12.38;;;20.50;92.60;;;;;;5035831;28;20033;-78
2021/07/20 07:03:40;;;;;;;15.85;10.35;;;20.80;92.40;;;;;;5032684;28;20032;-78
2021/07/20 07:06:05;;;;;;;24.27;11.50;;;21.10;91.50;;;;;;5049826;28;20041;-79
2021/07/20 07:08:31;;;;;;;26.02;12.30;;;21.10;91.40;;;;;;5048892;28;20090;-79
2021/07/20 07:10:58;;;;;;;16.08;10.13;;;21.50;91.40;;;;;;5024008;28;20036;-79
2021/07/20 07:13:24;;;;;;;22.05;12.07;;;21.70;90.80;;;;;;5039276;28;20394;-80
2021/07/20 07:15:49;;;;;;;20.77;10.45;;;21.90;90.90;;;;;;5032926;28;20024;-78
2021/07/20 07:18:15;;;;;;;16.13;9.40;;;22.10;90.50;;;;;;5028221;28;20028;-79
2021/07/20 07:20:41;;;;;;;17.48;10.02;;;22.30;88.20;;;;;;5021685;28;20454;-79
2021/07/20 07:23:06;;;;;;;15.85;9.82;;;22.60;88.90;;;;;;5021053;28;20033;-79
2021/07/20 07:25:32;;;;;;;23.48;9.95;;;22.60;89.30;;;;;;5056297;28;20258;-79
2021/07/20 07:27:58;;;;;;;13.10;7.43;;;22.80;88.90;;;;;;5040248;28;20123;-79
2021/07/20 07:30:23;;;;;;;12.13;7.22;;;23.10;86.00;;;;;;5020411;28;20041;-80
2021/07/20 07:32:49;;;;;;;13.63;8.13;;;23.20;86.90;;;;;;5029096;28;20033;-80
2021/07/20 07:35:14;;;;;;;14.75;8.13;;;23.40;85.90;;;;;;5040389;28;20104;-79
2021/07/20 07:37:40;;;;;;;12.82;7.70;;;23.60;84.10;;;;;;5020890;28;20537;-80
2021/07/20 07:40:07;;;;;;;16.52;7.10;;;23.70;84.90;;;;;;5024155;28;20484;-79
2021/07/20 07:42:34;;;;;;;16.58;7.13;;;23.90;82.70;;;;;;5032062;28;20427;-80
2021/07/20 07:45:00;;;;;;;9.75;6.25;;;24.10;82.50;;;;;;5049430;28;20025;-81
2021/07/20 07:47:25;;;;;;;10.27;6.75;;;24.20;81.70;;;;;;5042511;28;20074;-79
2021/07/20 07:49:51;;;;;;;9.77;6.05;;;24.50;80.80;;;;;;5040714;28;20131;-79
2021/07/20 07:52:16;;;;;;;18.13;6.72;;;24.70;79.40;;;;;;5028150;28;20115;-80
2021/07/20 07:54:44;;;;;;;8.45;6.07;;;24.80;79.20;;;;;;5031410;28;20057;-80
2021/07/20 07:57:10;;;;;;;11.73;6.50;;;24.90;77.90;;;;;;5036921;28;20400;-81
2021/07/20 07:59:39;;;;;;;12.20;6.65;;;25.20;75.90;;;;;;5047281;28;20054;-80
2021/07/20 08:02:05;;;;;;;11.38;7.57;;;25.30;76.30;;;;;;5049554;28;20450;-80
2021/07/20 08:04:31;;;;;;;13.63;7.82;;;25.60;75.80;;;;;;5024967;28;20028;-81
2021/07/20 08:06:57;;;;;;;11.00;6.93;;;25.90;72.00;;;;;;5043657;28;20381;-80
2021/07/20 08:09:23;;;;;;;10.43;7.20;;;25.90;72.90;;;;;;5035369;28;20040;-81
2021/07/20 08:11:49;;;;;;;15.77;7.57;;;26.00;73.50;;;;;;5023496;28;20036;-80
2021/07/20 08:14:15;;;;;;;17.50;7.82;;;26.20;73.50;;;;;;5024203;28;20025;-81
2021/07/20 08:16:48;;;;;;;13.35;7.72;;;26.20;73.20;;;;;;5020259;28;20029;-81
2021/07/20 08:19:15;;;;;;;12.45;7.28;;;26.20;71.30;;;;;;5014872;28;20490;-81
2021/07/20 08:21:43;;;;;;;13.18;7.50;;;26.30;71.10;;;;;;5041340;28;20112;-81
2021/07/20 08:24:10;;;;;;;15.10;8.15;;;26.40;72.00;;;;;;5013812;28;20401;-82
2021/07/20 08:26:45;;;;;;;12.55;8.15;;;26.80;70.10;;;;;;5023682;28;20031;-82
2021/07/20 08:29:12;;;;;;;14.20;8.40;;;27.20;69.20;;;;;;5020522;28;20420;-82
2021/07/20 08:31:44;;;;;;;13.02;8.13;;;27.50;69.50;;;;;;5032731;28;20028;-82
2021/07/20 08:34:11;;;;;;;13.68;7.75;;;27.80;64.40;;;;;;5062310;28;20028;-82
2021/07/20 08:36:40;;;;;;;14.43;7.45;;;27.80;65.70;;;;;;5017713;28;20480;-83
2021/07/20 08:39:07;;;;;;;12.18;8.60;;;27.80;65.90;;;;;;5035428;28;20484;-82
2021/07/20 08:41:58;;;;;;;13.85;8.93;;;27.70;64.80;;;;;;5032879;28;20403;-83
2021/07/20 08:44:26;;;;;;;12.82;8.10;;;27.60;62.90;;;;;;5057929;28;20519;-82
2021/07/20 08:47:10;;;;;;;17.55;8.98;;;27.40;64.10;;;;;;5048016;28;20029;-82
2021/07/20 08:49:52;;;;;;;14.63;9.02;;;27.50;63.80;;;;;;5014159;28;20040;-82
2021/07/20 08:52:20;;;;;;;13.52;8.73;;;27.30;62.20;;;;;;5048174;28;20388;-82
2021/07/20 08:54:50;;;;;;;14.30;8.95;;;27.10;63.50;;;;;;5022116;28;20120;-83
2021/07/20 08:57:19;;;;;;;14.45;8.50;;;27.00;63.50;;;;;;5020518;28;20059;-82
2021/07/20 08:59:49;;;;;;;15.55;7.82;;;27.10;63.90;;;;;;5016629;28;20523;-82
2021/07/20 09:02:32;;;;;;;19.00;9.05;;;27.10;63.00;;;;;;5032943;28;20112;-82
2021/07/20 09:05:50;;;;;;;10.95;7.78;;;27.20;59.90;;;;;;5046442;28;20131;-82
2021/07/20 09:08:50;;;;;;;11.05;6.85;;;27.20;61.70;;;;;;4999470;28;20037;-81
2021/07/20 09:11:43;;;;;;;9.93;6.55;;;27.00;62.30;;;;;;4977314;28;20029;-81
2021/07/20 09:14:38;;;;;;;17.00;8.07;;;26.90;62.80;;;;;;5045874;28;20039;-82
2021/07/20 09:17:08;;;;;;;11.18;7.53;;;26.90;60.40;;;;;;5054168;28;20041;-81
2021/07/20 09:19:55;;;;;;;14.10;8.35;;;26.80;60.60;;;;;;5045061;28;20439;-82
2021/07/20 09:22:22;;;;;;;12.13;7.80;;;26.80;60.20;;;;;;5029012;28;20033;-80
2021/07/20 09:24:56;;;;;;;14.48;7.75;;;26.70;60.00;;;;;;5028467;28;20111;-81
2021/07/20 09:27:33;;;;;;;15.63;8.98;;;26.50;60.40;;;;;;5029188;28;20409;-81
2021/07/20 09:30:00;;;;;;;8.68;7.28;;;26.60;59.20;;;;;;5034331;28;20081;-81
2021/07/20 09:33:10;;;;;;;11.57;7.30;;;26.60;59.90;;;;;;5027861;28;20269;-81
2021/07/20 09:36:08;;;;;;;14.05;7.22;;;26.70;59.80;;;;;;5012535;28;20558;-82
2021/07/20 09:38:52;;;;;;;13.80;7.45;;;27.00;59.80;;;;;;5044857;28;20028;-80
2021/07/20 09:41:23;;;;;;;14.80;7.82;;;27.30;59.50;;;;;;5039656;28;20361;-79
2021/07/20 09:44:10;;;;;;;11.50;7.97;;;27.50;59.40;;;;;;5046581;28;20021;-80
2021/07/20 09:46:46;;;;;;;12.20;6.85;;;27.80;57.50;;;;;;5044893;28;20025;-79
2021/07/20 09:49:20;;;;;;;11.48;7.05;;;27.80;58.40;;;;;;5027044;28;20165;-79
2021/07/20 09:51:52;;;;;;;11.70;7.88;;;27.90;59.40;;;;;;5038784;28;20028;-79
2021/07/20 09:54:32;;;;;;;13.35;7.38;;;28.10;60.20;;;;;;5048267;28;20043;-78
2021/07/20 09:57:19;;;;;;;8.20;6.55;;;28.70;58.50;;;;;;5035683;28;20059;-78
2021/07/20 09:59:54;;;;;;;10.85;6.90;;;29.10;57.40;;;;;;5028940;28;20033;-78
2021/07/20 10:02:44;;;;;;;8.50;6.78;;;29.40;57.20;;;;;;5034183;28;20039;-78
2021/07/20 10:05:20;;;;;;;7.78;5.63;;;29.70;57.20;;;;;;5049061;28;20051;-78
2021/07/20 10:08:03;;;;;;;9.30;6.88;;;29.90;54.90;;;;;;5046426;28;20049;-79
2021/07/20 10:10:40;;;;;;;10.13;6.43;;;29.70;55.40;;;;;;5030543;28;20234;-77
2021/07/20 10:13:29;;;;;;;12.07;6.93;;;29.90;53.90;;;;;;5026511;28;20048;-78
2021/07/20 10:16:15;;;;;;;10.50;7.90;;;29.90;54.00;;;;;;5039696;28;20698;-77
2021/07/20 10:18:56;;;;;;;14.35;7.82;;;29.80;52.90;;;;;;5035734;28;20020;-78
2021/07/20 10:21:23;;;;;;;11.90;7.68;;;29.70;51.80;;;;;;5036096;28;20032;-78
2021/07/20 10:23:58;;;;;;;11.25;7.13;;;29.40;51.60;;;;;;5033346;28;20068;-77
2021/07/20 10:26:30;;;;;;;10.05;7.07;;;29.50;52.00;;;;;;5030240;28;20539;-77
2021/07/20 10:29:14;;;;;;;9.45;7.15;;;29.60;51.70;;;;;;5049365;28;20502;-77
2021/07/20 10:31:48;;;;;;;7.30;5.65;;;29.70;51.30;;;;;;5048909;28;20031;-78
2021/07/20 10:34:17;;;;;;;9.07;5.80;;;29.60;53.40;;;;;;5040884;28;20091;-77
2021/07/20 10:36:46;;;;;;;7.85;6.78;;;29.70;54.30;;;;;;5039047;28;20113;-77
2021/07/20 10:39:13;;;;;;;10.98;6.65;;;30.20;54.20;;;;;;5034250;28;20033;-77
2021/07/20 10:41:48;;;;;;;14.77;8.13;;;30.90;50.60;;;;;;5036314;28;20052;-77
2021/07/20 10:44:39;;;;;;;9.88;6.85;;;31.00;50.40;;;;;;5045732;28;20033;-77
2021/07/20 10:47:05;;;;;;;11.88;6.88;;;31.10;49.60;;;;;;5014236;28;20392;-76
2021/07/20 10:49:50;;;;;;;15.63;8.07;;;31.20;48.90;;;;;;5017176;28;20143;-77
2021/07/20 10:52:27;;;;;;;11.88;7.47;;;31.30;49.30;;;;;;5050077;28;20028;-76
2021/07/20 10:55:02;;;;;;;9.98;6.80;;;31.30;49.00;;;;;;5032062;28;20123;-77
2021/07/20 10:57:33;;;;;;;12.97;7.43;;;31.10;48.50;;;;;;5046088;28;20092;-77
2021/07/20 11:00:12;;;;;;;11.85;6.95;;;31.00;48.40;;;;;;5034099;28;20496;-76
2021/07/20 11:02:56;;;;;;;9.88;7.22;;;31.10;48.80;;;;;;5047871;28;20056;-77
2021/07/20 11:05:22;;;;;;;9.68;7.53;;;31.10;48.30;;;;;;5049031;28;20037;-77
2021/07/20 11:07:55;;;;;;;9.20;6.93;;;31.20;48.50;;;;;;5038095;28;20021;-77
2021/07/20 11:10:23;;;;;;;11.05;7.03;;;31.40;47.90;;;;;;5030382;28;20040;-77
2021/07/20 11:12:52;;;;;;;8.48;6.35;;;31.40;48.50;;;;;;5051142;28;20508;-77
2021/07/20 11:15:21;;;;;;;14.85;8.10;;;31.60;48.20;;;;;;5059022;28;20032;-77
2021/07/20 11:17:47;;;;;;;9.73;7.43;;;32.10;46.50;;;;;;5034486;28;20028;-77
2021/07/20 11:20:14;;;;;;;10.15;7.57;;;32.40;45.70;;;;;;5026577;28;20630;-76
2021/07/20 11:22:40;;;;;;;8.88;6.55;;;32.60;45.30;;;;;;5034292;28;20365;-77
2021/07/20 11:25:06;;;;;;;10.68;8.27;;;32.10;46.70;;;;;;5037663;28;20087;-77
2021/07/20 11:27:32;;;;;;;12.38;7.65;;;32.20;44.80;;;;;;5018972;28;20394;-77
2021/07/20 11:29:58;;;;;;;12.30;7.40;;;32.10;45.70;;;;;;5038681;28;20030;-78
2021/07/20 11:32:26;;;;;;;10.43;7.10;;;32.00;45.30;;;;;;5030693;28;20031;-77
2021/07/20 11:34:57;;;;;;;10.38;7.30;;;31.90;46.10;;;;;;5035526;28;20452;-77
2021/07/20 11:37:31;;;;;;;12.20;7.13;;;31.90;45.30;;;;;;5026635;28;20028;-76
2021/07/20 11:40:05;;;;;;;12.85;7.22;;;32.00;44.10;;;;;;5053015;28;20028;-76
2021/07/20 11:42:43;;;;;;;12.38;7.75;;;31.90;45.30;;;;;;5043614;28;20396;-77
2021/07/20 11:45:09;;;;;;;7.22;6.30;;;31.90;44.00;;;;;;5046342;28;20388;-76
2021/07/20 11:47:38;;;;;;;11.40;8.20;;;32.00;45.20;;;;;;5034147;28;20488;-76
2021/07/20 11:50:37;;;;;;;8.00;6.55;;;31.90;44.20;;;;;;5052808;28;20139;-76
2021/07/20 11:53:25;;;;;;;10.07;6.60;;;31.90;46.50;;;;;;5047757;28;20032;-76
2021/07/20 11:55:58;;;;;;;8.52;6.93;;;32.10;45.50;;;;;;5046815;28;20031;-77
2021/07/20 11:58:45;;;;;;;11.63;7.22;;;32.20;46.20;;;;;;5034549;28;20444;-76
2021/07/20 12:01:14;;;;;;;12.25;8.18;;;32.40;45.30;;;;;;5048219;28;20064;-77
2021/07/20 12:04:12;;;;;;;10.50;6.93;;;32.70;44.20;;;;;;5047309;28;20033;-78
2021/07/20 12:07:02;;;;;;;12.93;7.43;;;32.70;44.70;;;;;;5050784;28;20028;-77
2021/07/20 12:09:36;;;;;;;10.82;6.93;;;32.60;44.40;;;;;;5052681;28;20029;-77
2021/07/20 12:12:02;;;;;;;8.90;7.30;;;32.60;45.10;;;;;;5054243;28;20039;-77
2021/07/20 12:14:28;;;;;;;8.75;7.22;;;32.80;45.00;;;;;;5046643;28;20028;-78
2021/07/20 12:16:54;;;;;;;10.43;7.80;;;32.80;43.30;;;;;;5034140;28;20068;-77
2021/07/20 12:19:25;;;;;;;13.88;7.32;;;32.90;43.30;;;;;;5043729;28;20036;-77
2021/07/20 12:21:51;;;;;;;11.07;7.80;;;33.10;43.20;;;;;;5042688;28;20112;-77
2021/07/20 12:24:16;;;;;;;8.48;6.47;;;33.30;41.50;;;;;;5026785;28;20109;-77
2021/07/20 12:26:42;;;;;;;11.27;7.53;;;33.40;42.10;;;;;;5017740;28;20096;-78
2021/07/20 12:29:08;;;;;;;10.68;7.88;;;33.30;41.00;;;;;;5032939;28;20136;-77
2021/07/20 12:31:34;;;;;;;8.32;6.75;;;33.60;40.40;;;;;;5028110;28;20104;-77
2021/07/20 12:34:00;;;;;;;8.07;6.53;;;33.50;42.30;;;;;;5033426;28;20507;-77
2021/07/20 12:36:25;;;;;;;9.95;6.65;;;33.40;42.50;;;;;;5014298;28;20037;-78
2021/07/20 12:39:09;;;;;;;9.25;6.70;;;33.50;42.70;;;;;;5032016;28;20044;-77
2021/07/20 12:41:36;;;;;;;8.85;6.80;;;33.80;41.30;;;;;;5055991;28;20040;-77
2021/07/20 12:44:01;;;;;;;8.25;6.40;;;33.90;40.30;;;;;;5059381;28;20039;-78
2021/07/20 12:46:28;;;;;;;11.07;7.50;;;34.10;41.70;;;;;;5014798;28;20456;-77
2021/07/20 12:48:53;;;;;;;10.10;7.32;;;34.00;41.00;;;;;;5044643;28;20044;-77